createdAt,value
2023-11-28T00:03:00.977Z,7.62
2023-11-28T00:08:04.213Z,7.69
2023-11-28T00:13:07.339Z,7.60
2023-11-28T00:18:09.844Z,7.74
2023-11-28T00:23:12.064Z,7.72
2023-11-28T00:28:14.078Z,7.72
2023-11-28T00:33:16.196Z,7.76
2023-11-28T00:38:18.458Z,7.69
2023-11-28T00:43:22.216Z,7.73
2023-11-28T00:48:24.718Z,7.73
2023-11-28T00:53:26.875Z,7.75
2023-11-28T00:58:29.027Z,7.69
2023-11-28T01:03:31.212Z,7.67
2023-11-28T01:08:33.472Z,7.67
2023-11-28T01:13:40.693Z,7.65
2023-11-28T01:18:42.930Z,7.66
2023-11-28T01:23:45.116Z,7.68
2023-11-28T01:28:47.190Z,7.67
2023-11-28T01:33:49.362Z,7.72
2023-11-28T01:38:51.847Z,7.79
2023-11-28T01:43:53.859Z,7.77
2023-11-28T01:48:55.943Z,7.74
2023-11-28T01:54:01.372Z,7.77
2023-11-28T01:59:06.506Z,7.80
2023-11-28T02:04:08.746Z,7.84
2023-11-28T02:09:11.405Z,7.86
2023-11-28T02:14:13.542Z,7.86
2023-11-28T02:19:15.677Z,7.81
2023-11-28T02:24:19.145Z,7.87
2023-11-28T02:29:21.523Z,7.86
2023-11-28T02:34:23.922Z,7.85
2023-11-28T02:39:26.180Z,7.87
2023-11-28T02:44:28.300Z,7.84
2023-11-28T02:49:30.616Z,7.89
2023-11-28T02:54:33.152Z,7.86
2023-11-28T02:59:35.650Z,7.84
2023-11-28T03:04:39.307Z,7.88
2023-11-28T03:09:44.309Z,7.92
2023-11-28T03:14:48.956Z,7.93
2023-11-28T03:19:54.774Z,7.94
2023-11-28T03:24:56.827Z,7.96
2023-11-28T03:29:58.923Z,7.95
2023-11-28T03:35:01.356Z,7.86
2023-11-28T03:40:05.865Z,7.84
2023-11-28T03:45:09.222Z,7.84
2023-11-28T03:50:12.490Z,7.83
2023-11-28T03:55:15.158Z,7.84
2023-11-28T04:00:17.750Z,7.77
2023-11-28T04:05:20.330Z,7.82
2023-11-28T04:10:22.803Z,7.75
2023-11-28T04:15:25.507Z,7.73
2023-11-28T04:20:27.998Z,7.79
2023-11-28T04:25:30.493Z,7.88
2023-11-28T04:30:32.716Z,7.87
2023-11-28T04:35:35.355Z,7.82
2023-11-28T04:40:37.814Z,7.83
2023-11-28T04:45:41.779Z,7.76
2023-11-28T04:50:43.869Z,7.84
2023-11-28T04:55:45.994Z,7.83
2023-11-28T05:00:49.202Z,7.80
2023-11-28T05:05:58.786Z,7.86
2023-11-28T05:11:07.873Z,7.84
2023-11-28T05:16:11.138Z,7.85
2023-11-28T05:21:15.304Z,7.89
2023-11-28T05:26:22.543Z,7.88
2023-11-28T05:31:25.290Z,7.90
2023-11-28T05:36:28.349Z,7.89
2023-11-28T05:41:31.137Z,7.90
2023-11-28T05:46:33.952Z,7.84
2023-11-28T05:51:36.607Z,7.82
2023-11-28T05:56:38.789Z,7.83
2023-11-28T06:02:01.838Z,7.80
2023-11-28T06:07:04.390Z,7.80
2023-11-28T06:12:07.624Z,7.83
2023-11-28T06:17:11.366Z,7.85
2023-11-28T06:22:15.901Z,7.91
2023-11-28T06:27:18.481Z,7.94
2023-11-28T06:32:21.455Z,7.95
2023-11-28T06:37:23.975Z,7.94
2023-11-28T06:42:26.069Z,7.89
2023-11-28T06:47:28.134Z,7.87
2023-11-28T06:52:30.634Z,7.93
2023-11-28T06:57:33.839Z,7.90
2023-11-28T07:02:37.339Z,7.98
2023-11-28T07:07:39.961Z,7.89
2023-11-28T07:12:42.571Z,7.95
2023-11-28T07:17:44.684Z,7.99
2023-11-28T07:22:46.894Z,7.95
2023-11-28T07:27:49.212Z,7.95
2023-11-28T07:32:51.919Z,8.00
2023-11-28T07:37:54.239Z,8.01
2023-11-28T07:42:56.438Z,7.95
2023-11-28T07:48:01.134Z,8.01
2023-11-28T07:53:03.513Z,8.06
2023-11-28T07:58:08.150Z,8.13
2023-11-28T08:03:11.024Z,8.21
2023-11-28T08:08:13.366Z,8.25
2023-11-28T08:13:16.940Z,8.33
2023-11-28T08:18:19.262Z,8.45
2023-11-28T08:23:21.520Z,8.44
2023-11-28T08:28:25.253Z,8.54
2023-11-28T08:33:27.704Z,8.53
2023-11-28T08:38:33.140Z,8.55
2023-11-28T08:43:35.569Z,8.58
2023-11-28T08:48:37.625Z,8.67
2023-11-28T08:53:39.862Z,8.61
2023-11-28T08:58:44.594Z,8.57
2023-11-28T09:03:47.785Z,8.62
2023-11-28T09:08:51.233Z,8.67
2023-11-28T09:13:53.929Z,8.77
2023-11-28T09:18:56.009Z,8.90
2023-11-28T09:23:58.085Z,9.00
2023-11-28T09:29:02.759Z,9.06
2023-11-28T09:34:04.901Z,9.08
2023-11-28T09:39:06.996Z,9.16
2023-11-28T09:44:09.516Z,9.27
2023-11-28T09:49:12.629Z,9.34
2023-11-28T09:54:18.254Z,9.44
2023-11-28T09:59:20.564Z,9.54
2023-11-28T10:04:23.538Z,9.59
2023-11-28T10:09:25.706Z,9.72
2023-11-28T10:14:28.705Z,9.84
2023-11-28T10:19:30.808Z,9.87
2023-11-28T10:24:34.186Z,9.89
2023-11-28T10:29:36.926Z,9.94
2023-11-28T10:34:39.223Z,9.99
2023-11-28T10:39:41.417Z,10.09
2023-11-28T10:44:43.597Z,10.20
2023-11-28T10:49:45.991Z,10.25
2023-11-28T10:54:54.611Z,10.41
2023-11-28T11:00:03.879Z,10.48
2023-11-28T11:05:07.674Z,10.67
2023-11-28T11:10:10.711Z,10.81
2023-11-28T11:15:19.145Z,11.20
2023-11-28T11:20:24.002Z,11.41
2023-11-28T11:25:42.140Z,11.65
2023-11-28T11:30:44.481Z,11.66
2023-11-28T11:36:19.142Z,11.65
2023-11-28T11:41:21.554Z,11.56
2023-11-28T11:46:28.841Z,11.52
2023-11-28T11:51:31.126Z,11.35
2023-11-28T11:56:33.244Z,11.29
2023-11-28T12:01:35.278Z,11.26
2023-11-28T12:06:37.368Z,11.19
2023-11-28T12:11:39.499Z,11.30
2023-11-28T12:16:47.994Z,11.39
2023-11-28T12:21:50.484Z,11.47
2023-11-28T12:26:52.906Z,11.57
2023-11-28T12:31:55.337Z,11.66
2023-11-28T12:37:00.970Z,11.84
2023-11-28T12:42:03.308Z,11.99
2023-11-28T12:47:05.622Z,12.28
2023-11-28T12:52:08.024Z,12.49
2023-11-28T12:57:14.308Z,12.47
2023-11-28T13:02:16.563Z,12.70
2023-11-28T13:07:27.071Z,12.70
2023-11-28T13:12:35.712Z,12.70
2023-11-28T13:17:39.551Z,12.73
2023-11-28T13:22:42.116Z,12.75
2023-11-28T13:27:45.038Z,12.69
2023-11-28T13:32:48.934Z,12.54
2023-11-28T13:37:51.472Z,12.67
2023-11-28T13:42:53.901Z,12.78
2023-11-28T13:47:56.553Z,12.82
2023-11-28T13:52:58.727Z,12.87
2023-11-28T13:58:01.538Z,13.05
2023-11-28T14:03:04.849Z,13.05
2023-11-28T14:08:07.459Z,13.08
2023-11-28T14:13:09.888Z,13.08
2023-11-28T14:18:12.295Z,13.07
2023-11-28T14:23:14.794Z,13.09
2023-11-28T14:28:17.048Z,13.00
2023-11-28T14:33:19.442Z,12.98
2023-11-28T14:38:21.757Z,13.07
2023-11-28T14:43:24.432Z,13.01
2023-11-28T14:48:26.894Z,12.94
2023-11-28T14:53:29.119Z,12.91
2023-11-28T14:58:31.400Z,12.85
2023-11-28T15:03:34.370Z,12.73
2023-11-28T15:08:36.843Z,12.67
2023-11-28T15:13:45.965Z,12.57
2023-11-28T15:18:51.856Z,12.56
2023-11-28T15:23:54.286Z,12.41
2023-11-28T15:28:56.517Z,12.52
2023-11-28T15:33:58.794Z,12.56
2023-11-28T15:39:00.925Z,12.54
2023-11-28T15:44:03.122Z,12.48
2023-11-28T15:49:05.440Z,12.43
2023-11-28T15:54:08.260Z,12.47
2023-11-28T15:59:11.251Z,12.43
2023-11-28T16:04:13.594Z,12.38
2023-11-28T16:09:18.408Z,12.41
2023-11-28T16:14:20.782Z,12.27
2023-11-28T16:19:23.053Z,12.24
2023-11-28T16:24:25.786Z,12.27
2023-11-28T16:29:30.796Z,12.27
2023-11-28T16:34:33.754Z,12.21
2023-11-28T16:39:40.620Z,12.14
2023-11-28T16:44:42.956Z,12.09
2023-11-28T16:49:45.222Z,12.02
2023-11-28T16:54:47.872Z,11.97
2023-11-28T16:59:53.455Z,11.94
2023-11-28T17:05:04.804Z,11.88
2023-11-28T17:10:07.882Z,11.81
2023-11-28T17:15:13.792Z,11.76
2023-11-28T17:20:16.622Z,11.71
2023-11-28T17:25:18.845Z,11.70
2023-11-28T17:30:21.241Z,11.62
2023-11-28T17:35:23.546Z,11.49
2023-11-28T17:41:15.913Z,11.50
2023-11-28T17:46:18.828Z,11.48
2023-11-28T17:51:22.322Z,11.48
2023-11-28T17:56:24.785Z,11.42
2023-11-28T18:01:28.059Z,11.39
2023-11-28T18:06:30.350Z,11.39
2023-11-28T18:11:32.609Z,11.33
2023-11-28T18:16:34.986Z,11.33
2023-11-28T18:21:37.657Z,11.35
2023-11-28T18:26:40.077Z,11.29
2023-11-28T18:31:44.163Z,11.21
2023-11-28T18:36:46.884Z,11.16
2023-11-28T18:41:49.328Z,11.11
2023-11-28T18:46:51.741Z,11.09
2023-11-28T18:51:54.221Z,11.03
2023-11-28T18:56:58.272Z,10.88
2023-11-28T19:02:00.654Z,10.85
2023-11-28T19:07:03.100Z,10.75
2023-11-28T19:20:15.194Z,10.60
2023-11-28T19:25:17.428Z,10.55
2023-11-28T19:30:21.763Z,10.56
2023-11-28T19:35:23.824Z,10.51
2023-11-28T19:40:26.690Z,10.55
2023-11-28T19:45:29.145Z,10.54
2023-11-28T19:50:31.362Z,10.52
2023-11-28T19:55:33.515Z,10.51
2023-11-28T20:00:41.554Z,10.52
2023-11-28T20:05:46.938Z,10.51
2023-11-28T20:10:49.424Z,10.58
2023-11-28T20:15:51.984Z,10.64
2023-11-28T20:20:54.648Z,10.68
2023-11-28T20:25:57.174Z,10.73
2023-11-28T20:30:59.636Z,10.75
2023-11-28T20:36:01.884Z,10.75
2023-11-28T20:41:04.773Z,10.73
2023-11-28T20:46:07.599Z,10.70
2023-11-28T20:51:10.218Z,10.75
2023-11-28T20:56:12.591Z,10.78
2023-11-28T21:01:16.208Z,10.78
2023-11-28T21:06:18.580Z,10.77
2023-11-28T21:11:22.048Z,10.77
2023-11-28T21:16:24.394Z,10.78
2023-11-28T21:21:28.051Z,10.80
2023-11-28T21:26:30.305Z,10.77
2023-11-28T21:31:35.513Z,10.79
2023-11-28T21:36:41.748Z,10.81
2023-11-28T21:41:44.164Z,10.81
2023-11-28T21:46:46.634Z,10.88
2023-11-28T21:51:49.323Z,10.87
2023-11-28T21:56:51.799Z,10.92
2023-11-28T22:01:54.062Z,10.93
2023-11-28T22:06:56.622Z,10.93
2023-11-28T22:11:58.653Z,10.97
2023-11-28T22:17:00.996Z,10.97
2023-11-28T22:22:03.780Z,11.02
2023-11-28T22:27:05.968Z,11.05
2023-11-28T22:32:08.469Z,11.12
2023-11-28T22:37:12.884Z,11.15
2023-11-28T22:42:15.803Z,11.14
2023-11-28T22:47:21.405Z,11.19
2023-11-28T22:52:23.920Z,11.20
2023-11-28T22:57:27.231Z,11.21
2023-11-28T23:02:30.662Z,11.22
2023-11-28T23:07:33.655Z,11.21
2023-11-28T23:12:35.799Z,11.25
2023-11-28T23:17:37.998Z,11.24
2023-11-28T23:22:48.176Z,11.24
2023-11-28T23:27:59.983Z,11.27
2023-11-28T23:33:02.238Z,11.28
2023-11-28T23:38:04.467Z,11.30
2023-11-28T23:43:06.867Z,11.29
2023-11-28T23:48:09.097Z,11.31
2023-11-28T23:53:11.458Z,11.33
2023-11-28T23:58:13.813Z,11.34
